createdAt,value
2022-12-04T00:01:51.384Z,42.80
2022-12-04T00:04:55.143Z,40.93
2022-12-04T00:07:59.242Z,36.43
2022-12-04T00:11:03.335Z,39.33
2022-12-04T00:14:08.504Z,42.23
2022-12-04T00:17:12.215Z,43.53
2022-12-04T00:20:15.984Z,44.30
2022-12-04T00:23:19.854Z,42.50
2022-12-04T00:26:25.329Z,40.87
2022-12-04T00:29:30.747Z,46.37
2022-12-04T00:32:34.523Z,45.83
2022-12-04T00:35:38.207Z,49.07
2022-12-04T00:38:42.965Z,46.90
2022-12-04T00:41:46.634Z,45.93
2022-12-04T00:44:52.043Z,39.57
2022-12-04T00:47:55.850Z,43.80
2022-12-04T00:51:03.701Z,48.63
2022-12-04T00:54:07.505Z,50.80
2022-12-04T00:57:11.244Z,41.87
2022-12-04T01:00:17.014Z,44.27
2022-12-04T01:03:20.749Z,44.67
2022-12-04T01:06:26.128Z,51.83
2022-12-04T01:09:29.954Z,43.67
2022-12-04T01:12:33.564Z,46.40
2022-12-04T01:15:43.894Z,45.87
2022-12-04T01:18:48.027Z,49.43
2022-12-04T01:21:51.806Z,42.90
2022-12-04T01:24:57.190Z,42.43
2022-12-04T01:28:00.983Z,38.40
2022-12-04T01:31:08.803Z,45.37
2022-12-04T01:34:12.452Z,46.93
2022-12-04T01:37:16.265Z,41.80
2022-12-04T01:40:20.033Z,45.90
2022-12-04T01:43:24.606Z,43.67
2022-12-04T01:46:29.554Z,39.67
2022-12-04T01:49:39.653Z,39.97
2022-12-04T01:52:43.932Z,38.13
2022-12-04T01:55:49.012Z,38.33
2022-12-04T01:58:55.560Z,38.40
2022-12-04T02:02:05.877Z,43.60
2022-12-04T02:05:13.221Z,43.53
2022-12-04T02:08:17.297Z,45.07
2022-12-04T02:11:30.925Z,43.33
2022-12-04T02:14:43.263Z,40.20
2022-12-04T02:17:55.547Z,42.00
2022-12-04T02:21:07.694Z,43.60
2022-12-04T02:24:27.342Z,39.27
2022-12-04T02:27:59.883Z,36.50
2022-12-04T02:31:06.397Z,37.27
2022-12-04T02:34:16.949Z,38.90
2022-12-04T02:37:29.274Z,37.60
2022-12-04T02:40:40.260Z,38.10
2022-12-04T02:43:48.912Z,39.13
2022-12-04T02:46:57.694Z,38.53
2022-12-04T02:50:03.297Z,42.97
2022-12-04T02:53:12.404Z,43.03
2022-12-04T02:56:20.972Z,43.10
2022-12-04T02:59:31.807Z,40.43
2022-12-04T03:02:39.568Z,45.63
2022-12-04T03:05:47.972Z,43.57
2022-12-04T03:08:56.845Z,46.30
2022-12-04T03:12:07.784Z,37.63
2022-12-04T03:15:19.362Z,42.03
2022-12-04T03:18:28.994Z,40.67
2022-12-04T03:21:38.222Z,48.03
2022-12-04T03:24:46.984Z,40.67
2022-12-04T03:27:56.244Z,30.03
2022-12-04T03:31:06.256Z,41.10
2022-12-04T03:34:12.309Z,34.33
2022-12-04T03:37:20.061Z,40.07
2022-12-04T03:40:29.430Z,38.23
2022-12-04T03:43:39.251Z,46.33
2022-12-04T03:46:50.823Z,47.97
2022-12-04T03:50:01.643Z,39.73
2022-12-04T03:53:11.189Z,40.27
2022-12-04T03:56:19.219Z,35.47
2022-12-04T03:59:28.574Z,37.03
2022-12-04T04:02:39.652Z,42.90
2022-12-04T04:05:47.611Z,44.40
2022-12-04T04:08:56.374Z,50.93
2022-12-04T04:12:04.535Z,37.57
2022-12-04T04:15:30.040Z,40.90
2022-12-04T04:18:52.709Z,50.17
2022-12-04T04:22:14.405Z,63.10
2022-12-04T04:25:21.995Z,64.20
2022-12-04T04:28:30.991Z,33.97
2022-12-04T04:31:41.041Z,32.13
2022-12-04T04:34:52.103Z,28.87
2022-12-04T04:38:02.764Z,30.10
2022-12-04T04:41:13.231Z,32.23
2022-12-04T04:44:22.710Z,56.97
2022-12-04T04:47:32.147Z,38.83
2022-12-04T04:50:38.910Z,38.37
2022-12-04T04:53:46.984Z,34.57
2022-12-04T04:56:50.855Z,53.23
2022-12-04T04:59:54.618Z,40.93
2022-12-04T05:02:58.434Z,34.20
2022-12-04T05:06:03.533Z,27.30
2022-12-04T05:09:07.280Z,24.43
2022-12-04T05:12:11.630Z,24.90
2022-12-04T05:15:15.239Z,27.00
2022-12-04T05:18:18.935Z,25.77
2022-12-04T05:21:23.920Z,26.63
2022-12-04T05:24:27.724Z,26.80
2022-12-04T05:27:32.174Z,30.07
2022-12-04T05:30:36.331Z,32.03
2022-12-04T05:33:39.847Z,30.93
2022-12-04T05:36:44.799Z,28.70
2022-12-04T05:39:49.188Z,33.83
2022-12-04T05:42:52.743Z,27.70
2022-12-04T05:45:56.734Z,27.67
2022-12-04T05:49:00.338Z,22.63
2022-12-04T05:52:07.357Z,27.53
2022-12-04T05:55:11.097Z,28.47
2022-12-04T05:58:14.691Z,31.60
2022-12-04T06:01:21.173Z,44.60
2022-12-04T06:04:25.115Z,28.83
2022-12-04T06:07:30.270Z,33.27
2022-12-04T06:10:34.043Z,30.07
2022-12-04T06:13:38.004Z,27.50
2022-12-04T06:16:43.638Z,33.33
2022-12-04T06:19:47.598Z,31.13
2022-12-04T06:22:52.834Z,35.17
2022-12-04T06:25:58.004Z,30.37
2022-12-04T06:29:04.547Z,29.70
2022-12-04T06:32:08.304Z,29.43
2022-12-04T06:35:12.103Z,25.20
2022-12-04T06:38:21.143Z,34.50
2022-12-04T06:41:26.832Z,30.40
2022-12-04T06:44:30.614Z,35.13
2022-12-04T06:47:45.523Z,41.10
2022-12-04T06:50:49.244Z,33.23
2022-12-04T06:53:56.823Z,73.97
2022-12-04T06:57:01.226Z,99.83
2022-12-04T07:00:05.954Z,42.97
2022-12-04T07:03:09.773Z,36.27
2022-12-04T07:06:19.314Z,27.77
2022-12-04T07:09:24.741Z,30.53
2022-12-04T07:12:28.564Z,23.70
2022-12-04T07:15:34.795Z,34.23
2022-12-04T07:18:42.371Z,30.17
2022-12-04T07:21:48.901Z,31.60
2022-12-04T07:24:54.323Z,29.27
2022-12-04T07:27:58.804Z,30.70
2022-12-04T07:31:09.224Z,33.10
2022-12-04T07:34:18.136Z,26.47
2022-12-04T07:37:21.883Z,24.47
2022-12-04T07:40:27.056Z,25.63
2022-12-04T07:43:31.723Z,29.33
2022-12-04T07:46:35.556Z,30.47
2022-12-04T07:49:39.564Z,30.10
2022-12-04T07:52:43.165Z,28.63
2022-12-04T07:55:53.653Z,27.07
2022-12-04T07:58:57.313Z,23.23
2022-12-04T08:02:01.132Z,23.87
2022-12-04T08:05:05.023Z,30.40
2022-12-04T08:08:09.041Z,27.50
2022-12-04T08:11:16.526Z,28.73
2022-12-04T08:14:20.284Z,25.63
2022-12-04T08:17:24.081Z,25.53
2022-12-04T08:20:27.924Z,27.67
2022-12-04T08:23:31.690Z,31.23
2022-12-04T08:26:36.925Z,20.50
2022-12-04T08:29:40.845Z,28.53
2022-12-04T08:32:45.703Z,28.67
2022-12-04T08:35:49.394Z,24.00
2022-12-04T08:38:53.233Z,27.00
2022-12-04T08:41:58.470Z,25.73
2022-12-04T08:45:02.149Z,25.73
2022-12-04T08:48:06.376Z,24.13
2022-12-04T08:51:15.871Z,24.50
2022-12-04T08:54:19.774Z,22.27
2022-12-04T08:57:24.884Z,24.90
2022-12-04T09:00:28.727Z,29.10
2022-12-04T09:03:32.476Z,21.63
2022-12-04T09:06:36.144Z,25.60
2022-12-04T09:09:44.932Z,24.20
2022-12-04T09:12:53.169Z,26.03
2022-12-04T09:15:57.097Z,23.60
2022-12-04T09:19:00.993Z,21.93
2022-12-04T09:22:04.736Z,30.83
2022-12-04T09:25:09.244Z,30.70
2022-12-04T09:28:14.317Z,27.53
2022-12-04T09:31:18.246Z,25.83
2022-12-04T09:34:22.084Z,26.77
2022-12-04T09:37:25.723Z,33.13
2022-12-04T09:40:37.736Z,30.43
2022-12-04T09:43:49.354Z,31.27
2022-12-04T09:46:56.556Z,34.10
2022-12-04T09:50:05.423Z,34.87
2022-12-04T09:53:15.654Z,33.37
2022-12-04T09:56:21.277Z,36.13
2022-12-04T09:59:29.214Z,35.27
2022-12-04T10:02:38.879Z,30.97
2022-12-04T10:05:56.560Z,30.23
2022-12-04T10:09:04.734Z,26.57
2022-12-04T10:12:17.744Z,29.53
2022-12-04T10:15:31.227Z,22.07
2022-12-04T10:18:46.044Z,21.23
2022-12-04T10:22:05.723Z,19.37
2022-12-04T10:25:14.954Z,16.93
2022-12-04T10:28:27.367Z,14.70
2022-12-04T10:31:36.841Z,19.80
2022-12-04T10:34:45.633Z,18.50
2022-12-04T10:37:54.527Z,13.50
2022-12-04T10:41:07.743Z,20.63
2022-12-04T10:44:18.559Z,18.53
2022-12-04T10:47:26.612Z,16.43
2022-12-04T10:50:31.743Z,18.00
2022-12-04T10:53:39.144Z,13.77
2022-12-04T10:56:53.323Z,18.10
2022-12-04T11:00:00.529Z,12.60
2022-12-04T11:03:12.789Z,18.17
2022-12-04T11:06:17.404Z,16.27
2022-12-04T11:09:24.762Z,35.07
2022-12-04T11:12:29.415Z,73.47
2022-12-04T11:15:38.164Z,52.87
2022-12-04T11:18:52.495Z,19.47
2022-12-04T11:22:00.513Z,17.20
2022-12-04T11:25:05.813Z,13.20
2022-12-04T11:28:41.556Z,26.93
2022-12-04T11:31:49.477Z,13.03
2022-12-04T11:35:00.954Z,14.60
2022-12-04T11:38:15.247Z,17.33
2022-12-04T11:41:28.104Z,13.30
2022-12-04T11:44:34.334Z,15.03
2022-12-04T11:47:38.842Z,28.27
2022-12-04T11:50:51.514Z,14.57
2022-12-04T11:54:02.264Z,13.27
2022-12-04T11:57:17.765Z,21.60
2022-12-04T12:00:24.385Z,14.30
2022-12-04T12:03:37.883Z,15.07
2022-12-04T12:07:00.343Z,18.60
2022-12-04T12:10:12.823Z,10.60
2022-12-04T12:13:26.842Z,13.87
2022-12-04T12:16:48.533Z,11.40
2022-12-04T12:20:06.857Z,12.90
2022-12-04T12:23:33.163Z,12.43
2022-12-04T12:26:47.444Z,10.83
2022-12-04T12:30:01.365Z,12.67
2022-12-04T12:33:16.293Z,14.37
2022-12-04T12:36:25.791Z,11.67
2022-12-04T12:39:40.553Z,15.20
2022-12-04T12:42:56.623Z,12.50
2022-12-04T12:46:08.595Z,9.07
2022-12-04T12:49:20.424Z,9.60
2022-12-04T12:52:33.503Z,20.40
2022-12-04T12:55:46.823Z,8.87
2022-12-04T12:58:56.395Z,12.90
2022-12-04T13:02:08.582Z,9.17
2022-12-04T13:05:18.687Z,8.30
2022-12-04T13:08:28.112Z,9.57
2022-12-04T13:11:35.974Z,6.37
2022-12-04T13:14:45.949Z,9.53
2022-12-04T13:17:57.693Z,10.63
2022-12-04T13:21:07.393Z,8.57
2022-12-04T13:24:41.032Z,9.60
2022-12-04T13:28:03.105Z,8.30
2022-12-04T13:31:21.583Z,7.90
2022-12-04T13:34:50.004Z,7.27
2022-12-04T13:38:10.373Z,4.13
2022-12-04T13:41:22.233Z,8.37
2022-12-04T13:44:31.903Z,7.07
2022-12-04T13:47:39.063Z,6.23
2022-12-04T13:50:45.103Z,6.13
2022-12-04T13:53:51.395Z,5.87
2022-12-04T13:56:59.435Z,4.90
2022-12-04T14:00:27.533Z,5.37
2022-12-04T14:03:36.333Z,7.27
2022-12-04T14:06:46.824Z,9.33
2022-12-04T14:09:55.918Z,15.47
2022-12-04T14:13:04.903Z,10.27
2022-12-04T14:16:22.925Z,8.67
2022-12-04T14:19:35.986Z,10.00
2022-12-04T14:22:44.954Z,5.03
2022-12-04T14:25:48.623Z,8.37
2022-12-04T14:28:52.724Z,6.00
2022-12-04T14:32:01.814Z,7.57
2022-12-04T14:35:06.423Z,8.80
2022-12-04T14:38:19.746Z,7.63
2022-12-04T14:41:28.432Z,12.03
2022-12-04T14:44:33.543Z,10.73
2022-12-04T14:47:44.907Z,13.73
2022-12-04T14:50:59.246Z,12.30
2022-12-04T14:54:15.034Z,56.10
2022-12-04T14:57:44.553Z,24.70
2022-12-04T15:00:52.673Z,15.20
2022-12-04T15:04:00.033Z,12.00
2022-12-04T15:07:04.214Z,11.57
2022-12-04T15:10:38.471Z,6.83
2022-12-04T15:13:42.205Z,7.20
2022-12-04T15:16:45.783Z,11.43
2022-12-04T15:19:51.023Z,9.70
2022-12-04T15:22:59.095Z,8.53
2022-12-04T15:26:06.254Z,9.40
2022-12-04T15:29:11.144Z,10.50
2022-12-04T15:32:15.193Z,14.03
2022-12-04T15:35:27.163Z,11.40
2022-12-04T15:38:31.153Z,14.07
2022-12-04T15:41:37.216Z,17.40
2022-12-04T15:44:40.946Z,13.90
2022-12-04T15:47:53.853Z,13.23
2022-12-04T15:51:05.832Z,16.40
2022-12-04T15:54:16.351Z,8.63
2022-12-04T15:57:28.234Z,9.83
2022-12-04T16:00:34.485Z,15.07
2022-12-04T16:03:45.629Z,17.20
2022-12-04T16:06:53.997Z,14.93
2022-12-04T16:10:03.758Z,22.43
2022-12-04T16:13:07.874Z,16.50
2022-12-04T16:16:17.389Z,14.43
2022-12-04T16:19:31.223Z,15.47
2022-12-04T16:22:36.374Z,18.47
2022-12-04T16:25:40.074Z,17.10
2022-12-04T16:28:44.130Z,19.73
2022-12-04T16:31:47.919Z,16.77
2022-12-04T16:34:51.643Z,25.70
2022-12-04T16:37:56.853Z,21.10
2022-12-04T16:41:00.543Z,20.00
2022-12-04T16:44:04.334Z,17.97
2022-12-04T16:47:08.285Z,21.30
2022-12-04T16:50:12.194Z,15.13
2022-12-04T16:53:19.945Z,17.93
2022-12-04T16:56:24.322Z,18.70
2022-12-04T16:59:27.944Z,16.27
2022-12-04T17:02:32.154Z,18.93
2022-12-04T17:05:36.077Z,18.53
2022-12-04T17:08:41.226Z,25.27
2022-12-04T17:11:45.679Z,21.27
2022-12-04T17:14:49.403Z,32.67
2022-12-04T17:17:53.126Z,25.43
2022-12-04T17:20:57.103Z,21.37
2022-12-04T17:24:02.526Z,18.70
2022-12-04T17:27:08.033Z,22.60
2022-12-04T17:30:13.614Z,23.47
2022-12-04T17:33:17.266Z,27.00
2022-12-04T17:36:25.193Z,21.37
2022-12-04T17:39:30.394Z,22.07
2022-12-04T17:42:34.584Z,30.07
2022-12-04T17:45:42.214Z,26.27
2022-12-04T17:48:46.073Z,22.53
2022-12-04T17:51:49.746Z,23.90
2022-12-04T17:54:55.333Z,22.53
2022-12-04T17:57:59.263Z,20.60
2022-12-04T18:01:04.885Z,23.20
2022-12-04T18:04:09.363Z,23.07
2022-12-04T18:07:13.124Z,24.40
2022-12-04T18:10:18.653Z,22.70
2022-12-04T18:13:22.492Z,24.10
2022-12-04T18:16:27.351Z,18.77
2022-12-04T18:19:32.084Z,16.47
2022-12-04T18:22:35.774Z,22.23
2022-12-04T18:25:40.983Z,19.73
2022-12-04T18:28:45.095Z,20.33
2022-12-04T18:31:49.073Z,23.87
2022-12-04T18:34:52.921Z,22.17
2022-12-04T18:37:57.092Z,18.37
2022-12-04T18:41:05.914Z,18.73
2022-12-04T18:44:09.614Z,21.43
2022-12-04T18:47:13.302Z,25.43
2022-12-04T18:50:17.616Z,25.43
2022-12-04T18:53:25.273Z,24.97
2022-12-04T18:56:31.063Z,24.63
2022-12-04T18:59:36.642Z,23.20
2022-12-04T19:02:40.429Z,28.27
2022-12-04T19:05:50.038Z,20.33
2022-12-04T19:08:53.783Z,22.33
2022-12-04T19:11:59.527Z,29.67
2022-12-04T19:15:03.696Z,47.83
2022-12-04T19:18:07.544Z,22.70
2022-12-04T19:21:11.294Z,19.17
2022-12-04T19:24:15.645Z,20.40
2022-12-04T19:27:20.644Z,21.17
2022-12-04T19:30:24.356Z,19.27
2022-12-04T19:33:29.467Z,18.80
2022-12-04T19:36:34.851Z,19.27
2022-12-04T19:39:38.764Z,22.57
2022-12-04T19:42:44.043Z,20.93
2022-12-04T19:45:49.911Z,22.47
2022-12-04T19:48:57.065Z,27.67
2022-12-04T19:52:00.705Z,37.73
2022-12-04T19:55:04.593Z,32.40
2022-12-04T19:58:09.765Z,25.23
2022-12-04T20:01:16.263Z,16.40
2022-12-04T20:04:20.114Z,22.37
2022-12-04T20:07:23.773Z,20.60
2022-12-04T20:10:27.522Z,15.07
2022-12-04T20:13:35.867Z,15.00
2022-12-04T20:16:40.203Z,16.53
2022-12-04T20:19:43.957Z,72.43
2022-12-04T20:22:47.665Z,54.33
2022-12-04T20:25:51.636Z,36.47
2022-12-04T20:28:58.584Z,28.03
2022-12-04T20:32:02.307Z,24.17
2022-12-04T20:35:07.253Z,30.70
2022-12-04T20:38:10.894Z,38.23
2022-12-04T20:41:16.384Z,22.83
2022-12-04T20:44:21.606Z,47.27
2022-12-04T20:47:26.004Z,20.10
2022-12-04T20:50:29.723Z,49.33
2022-12-04T20:53:33.455Z,23.30
2022-12-04T20:56:39.404Z,20.67
2022-12-04T20:59:44.484Z,14.83
2022-12-04T21:02:48.276Z,18.83
2022-12-04T21:05:52.043Z,14.70
2022-12-04T21:08:56.938Z,13.83
2022-12-04T21:12:00.720Z,17.87
2022-12-04T21:15:24.133Z,28.07
2022-12-04T21:18:27.806Z,23.87
2022-12-04T21:21:31.655Z,22.60
2022-12-04T21:24:38.872Z,16.27
2022-12-04T21:27:42.703Z,19.60
2022-12-04T21:30:47.844Z,20.07
2022-12-04T21:33:51.683Z,18.37
2022-12-04T21:36:55.414Z,13.77
2022-12-04T21:39:59.808Z,14.40
2022-12-04T21:43:03.773Z,20.67
2022-12-04T21:46:09.893Z,27.10
2022-12-04T21:49:15.004Z,24.03
2022-12-04T21:52:19.535Z,22.30
2022-12-04T21:55:23.166Z,22.23
2022-12-04T21:58:29.384Z,21.60
2022-12-04T22:01:34.750Z,25.37
2022-12-04T22:04:38.623Z,19.83
2022-12-04T22:07:42.366Z,22.53
2022-12-04T22:10:48.681Z,21.80
2022-12-04T22:13:52.353Z,19.17
2022-12-04T22:16:57.745Z,17.70
2022-12-04T22:20:01.453Z,25.07
2022-12-04T22:23:05.844Z,19.67
2022-12-04T22:26:10.663Z,15.97
2022-12-04T22:29:48.660Z,20.63
2022-12-04T22:32:39.803Z,18.10
2022-12-04T22:35:43.563Z,22.70
2022-12-04T22:39:08.221Z,29.70
2022-12-04T22:42:11.494Z,21.87
2022-12-04T22:45:15.194Z,19.30
2022-12-04T22:48:20.295Z,16.73
2022-12-04T22:51:24.215Z,16.70
2022-12-04T22:54:27.803Z,16.13
2022-12-04T22:57:31.524Z,19.07
2022-12-04T23:00:35.275Z,16.77
2022-12-04T23:03:40.723Z,18.43
2022-12-04T23:06:44.346Z,18.50
2022-12-04T23:09:48.148Z,17.87
2022-12-04T23:12:51.942Z,16.53
2022-12-04T23:15:55.665Z,17.73
2022-12-04T23:19:01.024Z,16.43
2022-12-04T23:22:04.753Z,17.67
2022-12-04T23:25:09.493Z,19.90
2022-12-04T23:28:13.186Z,17.57
2022-12-04T23:31:17.171Z,17.17
2022-12-04T23:34:22.334Z,19.27
2022-12-04T23:37:25.905Z,20.63
2022-12-04T23:40:29.614Z,20.43
2022-12-04T23:43:33.923Z,17.30
2022-12-04T23:46:38.040Z,19.40
2022-12-04T23:49:43.264Z,16.87
2022-12-04T23:52:46.954Z,18.00
2022-12-04T23:55:57.593Z,20.60
2022-12-04T23:59:01.373Z,20.67
